createdAt,value
2023-05-04T00:00:08.307Z,5.28
2023-05-04T00:02:35.159Z,6.18
2023-05-04T00:05:02.288Z,6.15
2023-05-04T00:07:28.916Z,6.05
2023-05-04T00:09:55.587Z,6.68
2023-05-04T00:12:22.174Z,6.40
2023-05-04T00:14:48.956Z,6.47
2023-05-04T00:17:15.841Z,5.65
2023-05-04T00:19:43.966Z,6.20
2023-05-04T00:22:10.627Z,5.78
2023-05-04T00:24:37.377Z,6.05
2023-05-04T00:27:04.285Z,5.47
2023-05-04T00:29:31.360Z,5.90
2023-05-04T00:31:58.142Z,5.97
2023-05-04T00:34:24.947Z,6.70
2023-05-04T00:36:51.616Z,6.22
2023-05-04T00:39:18.225Z,6.68
2023-05-04T00:41:45.679Z,6.07
2023-05-04T00:44:12.596Z,5.95
2023-05-04T00:46:39.389Z,6.78
2023-05-04T00:49:07.316Z,6.63
2023-05-04T00:51:34.751Z,6.20
2023-05-04T00:54:01.508Z,5.82
2023-05-04T00:56:28.987Z,6.20
2023-05-04T00:58:57.837Z,6.20
2023-05-04T01:01:25.350Z,6.30
2023-05-04T01:03:54.357Z,6.00
2023-05-04T01:06:55.356Z,6.38
2023-05-04T01:09:43.142Z,6.45
2023-05-04T01:12:21.504Z,6.82
2023-05-04T01:14:49.946Z,6.63
2023-05-04T01:17:16.641Z,6.32
2023-05-04T01:19:43.246Z,6.07
2023-05-04T01:22:09.881Z,6.30
2023-05-04T01:24:36.575Z,6.10
2023-05-04T01:27:11.318Z,7.13
2023-05-04T01:29:54.624Z,6.18
2023-05-04T01:32:22.817Z,6.40
2023-05-04T01:34:49.720Z,6.05
2023-05-04T01:37:16.399Z,6.38
2023-05-04T01:39:42.951Z,6.05
2023-05-04T01:42:09.679Z,5.82
2023-05-04T01:44:36.414Z,6.05
2023-05-04T01:47:03.138Z,6.00
2023-05-04T01:49:29.792Z,6.05
2023-05-04T01:51:56.410Z,5.93
2023-05-04T01:54:23.047Z,6.13
2023-05-04T01:56:49.804Z,5.57
2023-05-04T01:59:16.408Z,6.13
2023-05-04T02:01:43.007Z,5.88
2023-05-04T02:04:09.972Z,6.18
2023-05-04T02:06:36.727Z,5.82
2023-05-04T02:09:03.802Z,5.90
2023-05-04T02:11:30.516Z,5.68
2023-05-04T02:13:57.133Z,6.03
2023-05-04T02:16:23.907Z,5.97
2023-05-04T02:18:52.288Z,5.68
2023-05-04T02:21:18.996Z,6.53
2023-05-04T02:23:45.605Z,5.50
2023-05-04T02:26:12.216Z,5.65
2023-05-04T02:28:38.822Z,5.28
2023-05-04T02:31:05.481Z,6.00
2023-05-04T02:33:32.058Z,5.63
2023-05-04T02:35:58.638Z,5.38
2023-05-04T02:38:26.870Z,5.90
2023-05-04T02:40:53.491Z,5.80
2023-05-04T02:43:20.080Z,5.57
2023-05-04T02:45:46.750Z,5.72
2023-05-04T02:48:13.358Z,5.75
2023-05-04T02:50:40.069Z,5.70
2023-05-04T02:53:06.626Z,5.72
2023-05-04T02:55:33.450Z,5.32
2023-05-04T02:58:00.066Z,5.93
2023-05-04T03:00:26.712Z,5.78
2023-05-04T03:02:53.540Z,5.72
2023-05-04T03:05:20.510Z,5.43
2023-05-04T03:07:47.131Z,5.97
2023-05-04T03:10:13.789Z,6.20
2023-05-04T03:12:40.939Z,5.57
2023-05-04T03:15:08.237Z,5.20
2023-05-04T03:17:35.040Z,5.70
2023-05-04T03:20:01.899Z,5.57
2023-05-04T03:22:28.669Z,5.72
2023-05-04T03:24:55.527Z,5.43
2023-05-04T03:27:22.172Z,5.68
2023-05-04T03:29:48.863Z,5.70
2023-05-04T03:32:15.906Z,5.78
2023-05-04T03:34:42.720Z,5.60
2023-05-04T03:37:09.417Z,5.80
2023-05-04T03:39:36.046Z,5.60
2023-05-04T03:42:02.703Z,5.80
2023-05-04T03:44:29.583Z,5.93
2023-05-04T03:46:56.382Z,5.35
2023-05-04T03:49:22.992Z,5.78
2023-05-04T03:51:49.604Z,5.78
2023-05-04T03:54:16.239Z,5.80
2023-05-04T03:56:42.892Z,5.35
2023-05-04T03:59:09.489Z,5.60
2023-05-04T04:01:36.097Z,6.20
2023-05-04T04:04:03.091Z,5.68
2023-05-04T04:06:29.854Z,5.75
2023-05-04T04:08:56.572Z,5.72
2023-05-04T04:11:23.184Z,6.15
2023-05-04T04:13:49.778Z,5.80
2023-05-04T04:16:16.531Z,6.30
2023-05-04T04:18:43.136Z,5.85
2023-05-04T04:21:10.414Z,6.40
2023-05-04T04:23:37.082Z,6.13
2023-05-04T04:26:06.083Z,5.82
2023-05-04T04:28:33.516Z,6.22
2023-05-04T04:31:00.997Z,5.13
2023-05-04T04:33:27.643Z,5.70
2023-05-04T04:35:54.296Z,5.95
2023-05-04T04:38:21.339Z,6.80
2023-05-04T04:40:47.928Z,6.20
2023-05-04T04:43:14.875Z,6.30
2023-05-04T04:45:41.480Z,5.05
2023-05-04T04:48:08.096Z,5.28
2023-05-04T04:50:38.583Z,6.35
2023-05-04T04:53:05.251Z,6.05
2023-05-04T04:55:32.457Z,5.80
2023-05-04T04:57:59.074Z,5.93
2023-05-04T05:00:26.324Z,5.82
2023-05-04T05:02:53.666Z,6.18
2023-05-04T05:05:20.386Z,6.15
2023-05-04T05:07:47.568Z,6.45
2023-05-04T05:10:14.476Z,6.25
2023-05-04T05:12:41.490Z,6.03
2023-05-04T05:15:09.243Z,6.25
2023-05-04T05:17:37.485Z,6.30
2023-05-04T05:20:11.742Z,6.00
2023-05-04T05:22:39.097Z,6.72
2023-05-04T05:25:06.983Z,6.05
2023-05-04T05:27:34.597Z,6.25
2023-05-04T05:30:05.770Z,6.65
2023-05-04T05:32:32.996Z,5.97
2023-05-04T05:34:59.671Z,6.22
2023-05-04T05:37:26.289Z,6.18
2023-05-04T05:39:52.965Z,6.28
2023-05-04T05:42:20.142Z,6.50
2023-05-04T05:44:46.754Z,6.10
2023-05-04T05:47:13.375Z,6.57
2023-05-04T05:49:39.992Z,6.07
2023-05-04T05:52:06.841Z,6.28
2023-05-04T05:54:35.005Z,6.07
2023-05-04T05:57:01.737Z,6.53
2023-05-04T05:59:28.483Z,6.75
2023-05-04T06:01:55.269Z,7.10
2023-05-04T06:04:21.897Z,6.60
2023-05-04T06:06:48.561Z,6.63
2023-05-04T06:09:15.190Z,6.10
2023-05-04T06:11:41.809Z,6.75
2023-05-04T06:14:08.763Z,6.53
2023-05-04T06:16:35.662Z,6.50
2023-05-04T06:19:02.390Z,6.55
2023-05-04T06:21:29.027Z,6.28
2023-05-04T06:23:55.721Z,5.97
2023-05-04T06:26:22.803Z,5.82
2023-05-04T06:28:50.000Z,6.03
2023-05-04T06:31:16.704Z,6.15
2023-05-04T06:33:43.369Z,5.63
2023-05-04T06:36:10.120Z,6.10
2023-05-04T06:38:38.796Z,5.82
2023-05-04T06:41:06.177Z,6.45
2023-05-04T06:43:33.058Z,6.40
2023-05-04T06:46:03.344Z,5.78
2023-05-04T06:48:31.696Z,6.40
2023-05-04T06:51:00.203Z,6.10
2023-05-04T06:53:28.404Z,5.85
2023-05-04T06:55:55.070Z,5.75
2023-05-04T06:58:22.017Z,6.00
2023-05-04T07:00:48.899Z,6.43
2023-05-04T07:03:15.731Z,6.03
2023-05-04T07:05:44.593Z,5.63
2023-05-04T07:08:12.413Z,5.93
2023-05-04T07:10:39.444Z,5.47
2023-05-04T07:13:06.598Z,5.28
2023-05-04T07:15:33.938Z,5.82
2023-05-04T07:18:01.374Z,5.82
2023-05-04T07:20:28.409Z,5.68
2023-05-04T07:22:56.903Z,5.93
2023-05-04T07:25:27.544Z,6.07
2023-05-04T07:27:54.411Z,5.68
2023-05-04T07:30:21.532Z,5.95
2023-05-04T07:32:48.444Z,5.88
2023-05-04T07:35:15.294Z,5.88
2023-05-04T07:37:41.990Z,5.72
2023-05-04T07:40:09.550Z,5.05
2023-05-04T07:42:36.465Z,5.60
2023-05-04T07:45:04.161Z,6.13
2023-05-04T07:47:30.831Z,5.85
2023-05-04T07:49:57.496Z,5.38
2023-05-04T07:52:24.083Z,5.00
2023-05-04T07:54:54.336Z,5.32
2023-05-04T07:57:21.748Z,5.50
2023-05-04T07:59:48.516Z,5.43
2023-05-04T08:02:15.203Z,5.20
2023-05-04T08:04:41.887Z,5.07
2023-05-04T08:07:08.545Z,5.78
2023-05-04T08:09:35.311Z,5.15
2023-05-04T08:12:02.487Z,5.38
2023-05-04T08:14:29.106Z,5.32
2023-05-04T08:16:55.776Z,4.90
2023-05-04T08:19:23.059Z,4.70
2023-05-04T08:21:49.672Z,4.50
2023-05-04T08:24:17.619Z,5.18
2023-05-04T08:26:49.540Z,4.70
2023-05-04T08:29:22.899Z,4.90
2023-05-04T08:31:49.656Z,4.65
2023-05-04T08:34:16.525Z,5.28
2023-05-04T08:36:43.125Z,3.60
2023-05-04T08:39:11.924Z,4.22
2023-05-04T08:41:42.047Z,4.38
2023-05-04T08:44:10.890Z,3.95
2023-05-04T08:46:41.414Z,3.83
2023-05-04T08:49:08.184Z,3.78
2023-05-04T08:51:37.094Z,4.10
2023-05-04T08:54:08.614Z,4.30
2023-05-04T08:56:36.580Z,4.30
2023-05-04T08:59:03.818Z,4.45
2023-05-04T09:01:32.775Z,3.85
2023-05-04T09:04:03.032Z,3.47
2023-05-04T09:06:31.272Z,3.35
2023-05-04T09:08:58.098Z,2.90
2023-05-04T09:11:24.810Z,3.47
2023-05-04T09:13:51.542Z,3.60
2023-05-04T09:16:19.430Z,3.20
2023-05-04T09:18:46.534Z,3.47
2023-05-04T09:21:13.412Z,3.08
2023-05-04T09:23:53.605Z,3.42
2023-05-04T09:26:27.885Z,3.15
2023-05-04T09:28:54.661Z,3.05
2023-05-04T09:31:21.338Z,2.67
2023-05-04T09:33:48.032Z,3.30
2023-05-04T09:36:21.944Z,3.53
2023-05-04T09:38:48.893Z,2.55
2023-05-04T09:41:15.984Z,2.40
2023-05-04T09:43:43.987Z,2.78
2023-05-04T09:46:20.341Z,2.70
2023-05-04T09:48:55.660Z,2.40
2023-05-04T09:51:24.272Z,2.78
2023-05-04T09:53:51.978Z,2.70
2023-05-04T09:56:46.038Z,2.95
2023-05-04T09:59:14.007Z,2.90
2023-05-04T10:01:43.358Z,2.90
2023-05-04T10:04:11.738Z,3.13
2023-05-04T10:06:38.578Z,2.78
2023-05-04T10:09:05.932Z,3.38
2023-05-04T10:11:32.732Z,3.25
2023-05-04T10:13:59.581Z,2.88
2023-05-04T10:16:38.690Z,3.40
2023-05-04T10:19:32.348Z,3.22
2023-05-04T10:22:36.280Z,3.83
2023-05-04T10:25:48.283Z,4.07
2023-05-04T10:28:31.679Z,3.45
2023-05-04T10:30:59.143Z,4.97
2023-05-04T10:33:26.742Z,4.35
2023-05-04T10:35:54.431Z,4.10
2023-05-04T10:38:41.406Z,3.78
2023-05-04T10:41:18.604Z,3.80
2023-05-04T10:43:50.972Z,4.20
2023-05-04T10:46:21.477Z,3.85
2023-05-04T10:48:48.632Z,3.80
2023-05-04T10:51:22.992Z,3.97
2023-05-04T10:53:50.718Z,4.32
2023-05-04T10:56:28.143Z,4.72
2023-05-04T10:58:55.563Z,3.88
2023-05-04T11:01:22.944Z,3.80
2023-05-04T11:03:50.541Z,3.85
2023-05-04T11:06:23.248Z,3.83
2023-05-04T11:09:01.483Z,3.75
2023-05-04T11:11:28.287Z,4.40
2023-05-04T11:13:55.223Z,4.13
2023-05-04T11:16:27.256Z,4.30
2023-05-04T11:18:54.823Z,4.75
2023-05-04T11:21:31.847Z,4.25
2023-05-04T11:24:00.037Z,4.30
2023-05-04T11:26:28.203Z,4.57
2023-05-04T11:28:54.977Z,4.53
2023-05-04T11:31:22.000Z,4.72
2023-05-04T11:33:54.515Z,5.13
2023-05-04T11:36:22.555Z,5.22
2023-05-04T11:38:49.790Z,5.25
2023-05-04T11:41:16.607Z,5.22
2023-05-04T11:43:45.364Z,5.72
2023-05-04T11:46:13.059Z,5.60
2023-05-04T11:48:40.878Z,4.82
2023-05-04T11:51:07.659Z,5.75
2023-05-04T11:53:43.651Z,5.70
2023-05-04T11:56:10.389Z,6.07
2023-05-04T11:58:37.233Z,5.25
2023-05-04T12:01:04.221Z,5.95
2023-05-04T12:03:48.631Z,5.90
2023-05-04T12:06:20.061Z,5.40
2023-05-04T12:08:46.873Z,5.57
2023-05-04T12:11:15.980Z,5.90
2023-05-04T12:13:45.340Z,6.30
2023-05-04T12:16:18.230Z,5.40
2023-05-04T12:18:46.123Z,6.55
2023-05-04T12:21:18.896Z,6.50
2023-05-04T12:23:47.078Z,6.00
2023-05-04T12:26:16.270Z,6.13
2023-05-04T12:28:45.287Z,6.22
2023-05-04T12:31:11.997Z,4.82
2023-05-04T12:33:38.809Z,6.35
2023-05-04T12:36:06.719Z,6.28
2023-05-04T12:38:34.179Z,6.20
2023-05-04T12:41:03.204Z,6.30
2023-05-04T12:43:31.182Z,6.65
2023-05-04T12:45:58.056Z,6.63
2023-05-04T12:48:26.951Z,6.53
2023-05-04T12:50:53.665Z,6.20
2023-05-04T12:53:22.362Z,6.20
2023-05-04T12:55:49.158Z,7.00
2023-05-04T12:58:15.862Z,7.15
2023-05-04T13:00:45.734Z,6.75
2023-05-04T13:03:13.148Z,7.45
2023-05-04T13:05:40.471Z,7.05
2023-05-04T13:08:07.274Z,6.75
2023-05-04T13:10:34.008Z,7.03
2023-05-04T13:13:01.037Z,7.22
2023-05-04T13:15:28.088Z,7.85
2023-05-04T13:17:54.878Z,7.85
2023-05-04T13:20:22.732Z,7.25
2023-05-04T13:22:50.523Z,7.65
2023-05-04T13:25:17.316Z,7.22
2023-05-04T13:27:44.113Z,7.22
2023-05-04T13:30:11.846Z,7.25
2023-05-04T13:32:38.731Z,7.82
2023-05-04T13:35:06.503Z,7.28
2023-05-04T13:37:33.901Z,8.07
2023-05-04T13:40:01.757Z,8.52
2023-05-04T13:42:28.467Z,7.63
2023-05-04T13:44:55.296Z,7.57
2023-05-04T13:47:23.771Z,8.30
2023-05-04T13:49:50.731Z,7.65
2023-05-04T13:52:17.447Z,7.93
2023-05-04T13:54:44.817Z,8.23
2023-05-04T13:57:11.469Z,8.88
2023-05-04T13:59:38.182Z,7.68
2023-05-04T14:02:08.744Z,7.55
2023-05-04T14:04:39.105Z,8.52
2023-05-04T14:07:08.346Z,8.57
2023-05-04T14:09:35.211Z,7.72
2023-05-04T14:12:02.742Z,8.27
2023-05-04T14:14:29.696Z,8.30
2023-05-04T14:16:56.379Z,7.80
2023-05-04T14:19:25.404Z,7.85
2023-05-04T14:21:52.516Z,7.47
2023-05-04T14:24:19.426Z,7.10
2023-05-04T14:26:46.431Z,7.57
2023-05-04T14:29:13.060Z,7.30
2023-05-04T14:31:39.782Z,6.68
2023-05-04T14:34:06.807Z,7.65
2023-05-04T14:36:36.626Z,7.00
2023-05-04T14:39:03.592Z,7.00
2023-05-04T14:41:34.889Z,7.80
2023-05-04T14:44:01.668Z,7.32
2023-05-04T14:46:29.519Z,7.65
2023-05-04T14:48:56.559Z,7.28
2023-05-04T14:51:24.349Z,7.88
2023-05-04T14:53:51.494Z,8.32
2023-05-04T14:56:18.327Z,7.20
2023-05-04T14:58:45.486Z,7.20
2023-05-04T15:01:12.297Z,7.15
2023-05-04T15:03:39.641Z,7.43
2023-05-04T15:06:08.358Z,8.20
2023-05-04T15:08:34.957Z,7.50
2023-05-04T15:11:01.661Z,7.57
2023-05-04T15:13:28.512Z,7.55
2023-05-04T15:15:55.140Z,8.32
2023-05-04T15:18:23.906Z,8.05
2023-05-04T15:20:50.757Z,8.50
2023-05-04T15:23:17.439Z,8.10
2023-05-04T15:25:44.129Z,7.88
2023-05-04T15:28:11.692Z,7.50
2023-05-04T15:30:40.777Z,7.47
2023-05-04T15:33:08.087Z,8.15
2023-05-04T15:35:36.437Z,8.25
2023-05-04T15:38:03.683Z,8.05
2023-05-04T15:40:31.358Z,8.65
2023-05-04T15:42:58.105Z,7.75
2023-05-04T15:45:24.886Z,7.93
2023-05-04T15:47:53.542Z,8.55
2023-05-04T15:50:21.237Z,8.02
2023-05-04T15:52:48.112Z,7.85
2023-05-04T15:55:25.144Z,7.50
2023-05-04T15:57:53.106Z,7.65
2023-05-04T16:00:20.897Z,8.35
2023-05-04T16:02:47.695Z,8.35
2023-05-04T16:05:14.440Z,8.43
2023-05-04T16:07:41.355Z,7.97
2023-05-04T16:10:09.111Z,7.20
2023-05-04T16:12:36.298Z,8.13
2023-05-04T16:15:03.258Z,7.55
2023-05-04T16:17:34.880Z,6.60
2023-05-04T16:20:02.674Z,7.03
2023-05-04T16:22:29.478Z,6.85
2023-05-04T16:24:56.260Z,7.00
2023-05-04T16:27:29.000Z,7.13
2023-05-04T16:29:55.919Z,6.70
2023-05-04T16:32:23.217Z,5.95
2023-05-04T16:34:49.946Z,6.65
2023-05-04T16:37:18.456Z,6.60
2023-05-04T16:39:45.424Z,6.35
2023-05-04T16:42:12.587Z,6.22
2023-05-04T16:44:39.330Z,6.65
2023-05-04T16:47:06.951Z,6.88
2023-05-04T16:49:33.993Z,6.15
2023-05-04T16:52:02.159Z,6.25
2023-05-04T16:54:28.849Z,6.65
2023-05-04T16:56:55.628Z,7.03
2023-05-04T16:59:22.684Z,6.20
2023-05-04T17:01:49.405Z,5.80
2023-05-04T17:04:16.260Z,5.72
2023-05-04T17:06:43.080Z,6.22
2023-05-04T17:09:10.607Z,6.40
2023-05-04T17:11:37.692Z,6.00
2023-05-04T17:14:04.441Z,7.30
2023-05-04T17:16:31.169Z,6.82
2023-05-04T17:18:57.920Z,6.90
2023-05-04T17:21:24.523Z,7.72
2023-05-04T17:23:51.371Z,6.60
2023-05-04T17:26:18.022Z,7.10
2023-05-04T17:28:44.694Z,7.00
2023-05-04T17:31:15.039Z,7.72
2023-05-04T17:33:41.724Z,6.70
2023-05-04T17:36:11.668Z,6.97
2023-05-04T17:38:39.213Z,6.65
2023-05-04T17:41:06.091Z,7.05
2023-05-04T17:43:34.008Z,7.03
2023-05-04T17:46:01.983Z,6.65
2023-05-04T17:48:31.231Z,6.70
2023-05-04T17:50:58.892Z,7.07
2023-05-04T17:53:28.736Z,6.00
2023-05-04T17:55:55.494Z,6.45
2023-05-04T17:58:23.858Z,6.57
2023-05-04T18:00:52.874Z,6.22
2023-05-04T18:03:20.167Z,6.20
2023-05-04T18:05:47.259Z,6.70
2023-05-04T18:08:14.088Z,6.22
2023-05-04T18:10:41.223Z,6.15
2023-05-04T18:13:08.065Z,6.55
2023-05-04T18:15:34.882Z,6.28
2023-05-04T18:18:01.795Z,6.00
2023-05-04T18:20:28.540Z,5.65
2023-05-04T18:22:55.781Z,5.45
2023-05-04T18:25:22.996Z,5.90
2023-05-04T18:27:49.766Z,5.32
2023-05-04T18:30:16.562Z,6.07
2023-05-04T18:32:43.357Z,5.60
2023-05-04T18:35:10.308Z,5.47
2023-05-04T18:37:36.940Z,4.82
2023-05-04T18:40:04.737Z,5.60
2023-05-04T18:42:31.933Z,5.63
2023-05-04T18:44:58.630Z,5.07
2023-05-04T18:47:25.445Z,5.32
2023-05-04T18:49:54.418Z,4.78
2023-05-04T18:52:21.815Z,4.50
2023-05-04T18:54:49.484Z,4.93
2023-05-04T18:57:16.666Z,4.60
2023-05-04T18:59:43.540Z,4.50
2023-05-04T19:02:10.552Z,4.47
2023-05-04T19:04:37.222Z,4.45
2023-05-04T19:07:04.052Z,4.45
2023-05-04T19:09:31.654Z,4.00
2023-05-04T19:11:58.780Z,4.22
2023-05-04T19:14:28.863Z,3.97
2023-05-04T19:16:57.847Z,3.53
2023-05-04T19:19:25.928Z,4.22
2023-05-04T19:21:52.595Z,4.18
2023-05-04T19:24:19.686Z,3.72
2023-05-04T19:26:46.509Z,4.18
2023-05-04T19:29:13.705Z,3.60
2023-05-04T19:31:40.773Z,4.25
2023-05-04T19:34:07.590Z,3.92
2023-05-04T19:36:34.325Z,4.30
2023-05-04T19:39:00.997Z,3.95
2023-05-04T19:41:27.627Z,3.60
2023-05-04T19:43:54.307Z,3.55
2023-05-04T19:46:21.235Z,3.72
2023-05-04T19:48:47.931Z,3.75
2023-05-04T19:51:14.622Z,3.75
2023-05-04T19:53:41.357Z,3.83
2023-05-04T19:56:08.208Z,3.97
2023-05-04T19:58:34.896Z,4.13
2023-05-04T20:01:01.768Z,4.20
2023-05-04T20:03:28.499Z,4.00
2023-05-04T20:05:55.629Z,4.63
2023-05-04T20:08:22.258Z,4.13
2023-05-04T20:10:48.917Z,4.65
2023-05-04T20:13:15.741Z,4.15
2023-05-04T20:15:42.718Z,3.90
2023-05-04T20:18:09.488Z,4.18
2023-05-04T20:20:36.189Z,4.25
2023-05-04T20:23:03.163Z,4.30
2023-05-04T20:25:29.947Z,4.22
2023-05-04T20:27:56.580Z,4.00
2023-05-04T20:30:23.260Z,4.32
2023-05-04T20:32:50.025Z,3.85
2023-05-04T20:35:17.198Z,4.13
2023-05-04T20:37:44.301Z,3.80
2023-05-04T20:40:12.094Z,3.92
2023-05-04T20:42:39.152Z,3.85
2023-05-04T20:45:06.508Z,3.55
2023-05-04T20:47:33.279Z,3.70
2023-05-04T20:49:59.889Z,3.92
2023-05-04T20:52:26.886Z,4.00
2023-05-04T20:54:54.676Z,3.85
2023-05-04T20:57:21.400Z,3.97
2023-05-04T20:59:48.044Z,4.10
2023-05-04T21:02:14.677Z,3.97
2023-05-04T21:04:43.278Z,4.07
2023-05-04T21:07:09.991Z,4.05
2023-05-04T21:09:36.649Z,3.88
2023-05-04T21:12:03.410Z,3.95
2023-05-04T21:14:30.115Z,4.03
2023-05-04T21:16:56.820Z,3.80
2023-05-04T21:19:23.552Z,4.15
2023-05-04T21:21:50.318Z,4.03
2023-05-04T21:24:17.186Z,4.45
2023-05-04T21:26:44.965Z,4.00
2023-05-04T21:29:12.964Z,4.10
2023-05-04T21:31:39.699Z,3.67
2023-05-04T21:34:06.515Z,4.20
2023-05-04T21:36:33.229Z,3.70
2023-05-04T21:39:00.182Z,3.97
2023-05-04T21:41:26.850Z,4.22
2023-05-04T21:43:53.518Z,3.67
2023-05-04T21:46:20.209Z,3.65
2023-05-04T21:48:46.889Z,3.60
2023-05-04T21:51:13.476Z,3.97
2023-05-04T21:53:43.365Z,3.95
2023-05-04T21:56:10.972Z,4.35
2023-05-04T21:58:40.323Z,3.88
2023-05-04T22:01:08.140Z,3.88
2023-05-04T22:03:35.419Z,3.70
2023-05-04T22:06:02.348Z,3.35
2023-05-04T22:08:29.749Z,3.75
2023-05-04T22:10:57.571Z,3.60
2023-05-04T22:13:25.418Z,3.30
2023-05-04T22:15:53.155Z,3.42
2023-05-04T22:18:20.537Z,3.60
2023-05-04T22:20:47.462Z,3.80
